Wilkes Barre Township, Pennsylvania
Current Conditions -  °F | °C
As of 7:05 AM on Tuesday 27 Jan 2015 (Local Time) from KAVP Reporting Station
Light Snow Light Snow  
Wind Chill: 10°   Ceiling: 3000
Heat Index: 18°   Visibility: 3mi
Dew Point: 12°   Wind: 6mph
Humidity: 78%   Direction: 20°NNE
Pressure: 29.76"   Gusts: NA
Location:  41.1921°N, 75.9213°W
Report Text: KAVP 271205Z AUTO 02005KT 3SM -SN OVC030 M08/M11 A2976 RMK AO2 P0000 T10781111
Loading
Personal Weather Stations






























Interactive Weather Map New forecast layout! Learn more

10-Day Weather Forecast

Advertisements
Track Severe Weather on mobile